Time;durP1;ratioP1;P1;durP2;ratioP2;P2;SDS_P1;SDS_P2;PMS_P1;PMS_P2;Temp;Humidity;BMP_temperature;BMP_pressure;BME280_temperature;BME280_humidity;BME280_pressure;Samples;Min_cycle;Max_cycle;Signal;HPM_P1;HPM_P2
2022/12/02 00:00:49;;;;;;;74.65;40.30;;;2.10;93.90;;;;;;4970825;28;20158;-77
2022/12/02 00:03:20;;;;;;;72.43;39.50;;;2.10;93.90;;;;;;4971680;28;20033;-80
2022/12/02 00:05:49;;;;;;;67.18;38.13;;;2.10;93.90;;;;;;4983437;28;20034;-78
2022/12/02 00:08:28;;;;;;;68.68;38.85;;;2.10;93.90;;;;;;4959377;28;20353;-81
2022/12/02 00:10:56;;;;;;;71.88;37.70;;;2.10;94.00;;;;;;4962702;28;20423;-82
2022/12/02 00:13:39;;;;;;;63.45;36.65;;;2.20;94.00;;;;;;4966182;28;20034;-80
2022/12/02 00:16:04;;;;;;;62.40;36.20;;;2.20;93.90;;;;;;4966571;28;20496;-78
2022/12/02 00:18:30;;;;;;;70.78;38.92;;;2.20;93.90;;;;;;4961033;28;20129;-77
2022/12/02 00:20:56;;;;;;;66.47;38.50;;;2.20;93.80;;;;;;4970457;28;20037;-81
2022/12/02 00:23:22;;;;;;;67.40;38.47;;;2.10;93.60;;;;;;4966562;28;20121;-79
2022/12/02 00:25:51;;;;;;;67.07;37.13;;;2.00;93.50;;;;;;4966916;28;20251;-76
2022/12/02 00:28:17;;;;;;;65.70;38.63;;;2.00;93.40;;;;;;4963150;28;20045;-75
2022/12/02 00:30:43;;;;;;;67.18;38.38;;;2.00;93.40;;;;;;4969713;28;20026;-76
2022/12/02 00:33:09;;;;;;;69.07;37.15;;;2.00;93.30;;;;;;4963761;28;20038;-77
2022/12/02 00:35:35;;;;;;;67.47;38.13;;;2.00;93.30;;;;;;4964891;28;20165;-77
2022/12/02 00:38:01;;;;;;;66.47;37.40;;;2.00;93.20;;;;;;4966555;28;20132;-76
2022/12/02 00:40:27;;;;;;;71.38;38.90;;;2.00;93.30;;;;;;4967439;28;20133;-77
2022/12/02 00:42:52;;;;;;;68.32;37.15;;;2.00;93.20;;;;;;4965559;28;20467;-80
2022/12/02 00:48:02;;;;;;;65.50;37.10;;;2.00;93.30;;;;;;4967297;28;20100;-77
2022/12/02 00:50:28;;;;;;;66.15;37.13;;;2.00;93.30;;;;;;4963195;28;20150;-76
2022/12/02 00:52:54;;;;;;;60.67;35.42;;;2.10;93.30;;;;;;4972368;28;20031;-79
2022/12/02 00:55:20;;;;;;;67.25;35.38;;;2.10;93.40;;;;;;4966807;28;20038;-77
2022/12/02 00:57:45;;;;;;;66.40;35.85;;;2.10;93.40;;;;;;4968018;28;20467;-76
2022/12/02 01:00:11;;;;;;;67.55;36.95;;;2.10;93.40;;;;;;4971384;28;20078;-78
2022/12/02 01:02:37;;;;;;;66.80;36.45;;;2.10;93.40;;;;;;4967146;28;20491;-76
2022/12/02 01:05:04;;;;;;;63.58;35.15;;;2.10;93.40;;;;;;4973742;28;20049;-81
2022/12/02 01:07:30;;;;;;;65.78;36.30;;;2.10;93.50;;;;;;4970679;28;20411;-77
2022/12/02 01:09:55;;;;;;;66.20;37.03;;;2.10;93.50;;;;;;4964971;28;20666;-76
2022/12/02 01:12:21;;;;;;;69.82;38.28;;;2.10;93.50;;;;;;4964774;28;20077;-80
2022/12/02 01:14:47;;;;;;;71.57;38.33;;;2.20;93.50;;;;;;4965937;28;20216;-78
2022/12/02 01:17:12;;;;;;;64.85;35.90;;;2.10;93.50;;;;;;4970213;28;20125;-76
2022/12/02 01:19:38;;;;;;;62.30;35.88;;;2.20;93.60;;;;;;4973845;28;20031;-78
2022/12/02 01:22:03;;;;;;;69.20;37.08;;;2.20;93.60;;;;;;4965446;28;20049;-75
2022/12/02 01:24:29;;;;;;;65.68;35.72;;;2.30;93.60;;;;;;4963607;28;20050;-79
2022/12/02 01:26:55;;;;;;;62.50;33.90;;;2.30;93.60;;;;;;4970560;28;20037;-76
2022/12/02 01:29:20;;;;;;;58.65;33.58;;;2.30;93.60;;;;;;4961589;28;20054;-77
2022/12/02 01:31:46;;;;;;;62.80;34.03;;;2.30;93.60;;;;;;4968326;28;20738;-79
2022/12/02 01:34:11;;;;;;;60.05;33.88;;;2.30;93.60;;;;;;4968990;28;20106;-76
2022/12/02 01:36:37;;;;;;;61.65;34.75;;;2.30;93.70;;;;;;4968804;28;20042;-80
2022/12/02 01:39:03;;;;;;;58.97;33.20;;;2.30;93.70;;;;;;4965302;28;20183;-75
2022/12/02 01:41:28;;;;;;;59.75;33.97;;;2.30;93.70;;;;;;4974410;28;20061;-75
2022/12/02 01:43:54;;;;;;;60.28;33.97;;;2.30;93.70;;;;;;4970674;28;20233;-77
2022/12/02 01:46:20;;;;;;;61.58;34.13;;;2.30;93.70;;;;;;4967323;28;20035;-76
2022/12/02 01:48:46;;;;;;;54.25;32.53;;;2.30;93.70;;;;;;4968202;28;20038;-80
2022/12/02 01:51:11;;;;;;;64.13;35.45;;;2.20;93.70;;;;;;4967475;28;20084;-76
2022/12/02 01:53:38;;;;;;;64.07;34.67;;;2.30;93.70;;;;;;4966846;28;20023;-76
2022/12/02 01:56:04;;;;;;;60.60;35.92;;;2.30;93.80;;;;;;4972447;28;20035;-76
2022/12/02 01:58:30;;;;;;;62.17;35.85;;;2.30;93.80;;;;;;4966438;28;20045;-76
2022/12/02 02:00:57;;;;;;;62.25;37.70;;;2.30;93.90;;;;;;4972140;28;20118;-80
2022/12/02 02:03:23;;;;;;;60.47;35.03;;;2.30;93.90;;;;;;4970969;28;20378;-78
2022/12/02 02:05:50;;;;;;;58.08;32.67;;;2.30;93.80;;;;;;4969370;28;20031;-75
2022/12/02 02:08:16;;;;;;;56.58;32.20;;;2.30;93.70;;;;;;4963963;28;20133;-79
2022/12/02 02:10:44;;;;;;;55.67;33.70;;;2.20;93.70;;;;;;4969028;28;20042;-80
2022/12/02 02:13:12;;;;;;;57.28;32.70;;;2.20;93.70;;;;;;4966930;28;20031;-77
2022/12/02 02:15:39;;;;;;;55.40;33.78;;;2.20;93.70;;;;;;4967355;28;20035;-79
2022/12/02 02:18:05;;;;;;;53.47;30.85;;;2.20;93.70;;;;;;4964691;28;20026;-76
2022/12/02 02:20:32;;;;;;;58.00;32.13;;;2.20;93.70;;;;;;4967715;28;20050;-75
2022/12/02 02:23:06;;;;;;;58.25;33.00;;;2.20;93.70;;;;;;4966341;28;20035;-81
2022/12/02 02:25:36;;;;;;;57.20;31.40;;;2.20;93.80;;;;;;4968091;28;20485;-76
2022/12/02 02:28:02;;;;;;;57.67;31.77;;;2.30;93.80;;;;;;4964700;28;20039;-76
2022/12/02 02:30:30;;;;;;;57.25;32.80;;;2.30;93.80;;;;;;4965504;28;20035;-78
2022/12/02 02:32:57;;;;;;;54.65;32.03;;;2.20;93.70;;;;;;4966883;28;20051;-78
2022/12/02 02:35:23;;;;;;;54.83;32.35;;;2.30;93.80;;;;;;4967559;28;20113;-78
2022/12/02 02:37:51;;;;;;;58.38;32.65;;;2.30;93.80;;;;;;4962007;28;20445;-79
2022/12/02 02:40:18;;;;;;;54.50;32.33;;;2.30;93.70;;;;;;4968641;28;20486;-77
2022/12/02 02:42:48;;;;;;;52.05;30.08;;;2.30;93.80;;;;;;4967347;28;20185;-77
2022/12/02 02:45:14;;;;;;;52.85;30.52;;;2.30;93.80;;;;;;4961706;28;20576;-76
2022/12/02 02:47:41;;;;;;;56.42;31.45;;;2.30;93.80;;;;;;4969859;28;20031;-75
2022/12/02 02:50:07;;;;;;;52.47;30.50;;;2.30;93.80;;;;;;4964614;28;20039;-75
2022/12/02 02:52:33;;;;;;;63.20;35.00;;;2.30;93.80;;;;;;4963971;28;20514;-80
2022/12/02 02:54:59;;;;;;;58.92;31.83;;;2.30;93.80;;;;;;4959829;28;20043;-76
2022/12/02 02:57:25;;;;;;;55.58;32.13;;;2.30;93.80;;;;;;4971564;28;20039;-75
2022/12/02 02:59:54;;;;;;;60.67;33.13;;;2.30;93.80;;;;;;4971481;28;20571;-76
2022/12/02 03:02:21;;;;;;;55.78;31.85;;;2.30;93.80;;;;;;4962922;28;20043;-79
2022/12/02 03:04:46;;;;;;;57.40;32.17;;;2.20;93.80;;;;;;4971271;28;20041;-81
2022/12/02 03:07:12;;;;;;;51.50;31.23;;;2.20;93.80;;;;;;4962251;28;20046;-78
2022/12/02 03:09:39;;;;;;;55.63;33.33;;;2.20;93.80;;;;;;4965884;28;20130;-74
2022/12/02 03:12:05;;;;;;;60.00;32.10;;;2.20;93.80;;;;;;4963591;28;20039;-81
2022/12/02 03:14:31;;;;;;;59.47;34.25;;;2.20;93.80;;;;;;4969345;28;20058;-79
2022/12/02 03:17:00;;;;;;;58.80;34.15;;;2.30;93.90;;;;;;4964494;28;20039;-80
2022/12/02 03:19:26;;;;;;;53.35;32.88;;;2.30;93.80;;;;;;4968127;28;20068;-82
2022/12/02 03:21:52;;;;;;;51.40;30.00;;;2.30;93.70;;;;;;4963961;28;21032;-77
2022/12/02 03:24:18;;;;;;;58.75;34.10;;;2.30;93.70;;;;;;4966704;28;20046;-76
2022/12/02 03:26:44;;;;;;;52.78;30.52;;;2.30;93.60;;;;;;4966771;28;20038;-79
2022/12/02 03:29:12;;;;;;;51.40;30.48;;;2.30;93.60;;;;;;4962127;28;20042;-78
2022/12/02 03:31:38;;;;;;;54.35;32.17;;;2.30;93.50;;;;;;4971833;28;20027;-77
2022/12/02 03:34:04;;;;;;;56.20;33.50;;;2.30;93.50;;;;;;4964824;28;20122;-77
2022/12/02 03:36:31;;;;;;;56.22;32.53;;;2.40;93.50;;;;;;4968682;28;20141;-76
2022/12/02 03:38:57;;;;;;;59.72;33.15;;;2.40;93.60;;;;;;4965054;28;20072;-82
2022/12/02 03:41:24;;;;;;;56.35;32.30;;;2.40;93.60;;;;;;4966771;28;20486;-77
2022/12/02 03:43:50;;;;;;;63.88;35.20;;;2.40;93.60;;;;;;4967325;28;20035;-76
2022/12/02 03:46:16;;;;;;;55.53;32.63;;;2.50;93.70;;;;;;4959926;28;20089;-79
2022/12/02 03:48:42;;;;;;;62.58;34.03;;;2.60;93.70;;;;;;4968931;28;20050;-77
2022/12/02 03:51:11;;;;;;;61.75;34.00;;;2.60;93.70;;;;;;4966631;28;20096;-74
2022/12/02 03:53:38;;;;;;;70.80;38.00;;;2.60;93.70;;;;;;4967022;28;20031;-76
2022/12/02 03:56:06;;;;;;;71.43;36.55;;;2.60;93.70;;;;;;4969910;28;20031;-77
2022/12/02 03:58:34;;;;;;;62.25;33.30;;;2.60;93.70;;;;;;4962985;28;20047;-75
2022/12/02 04:00:59;;;;;;;66.25;35.08;;;2.60;93.70;;;;;;4962526;28;20039;-77
2022/12/02 04:03:25;;;;;;;73.47;36.72;;;2.70;93.80;;;;;;4954548;28;20570;-75
2022/12/02 04:05:50;;;;;;;63.80;35.63;;;2.70;93.70;;;;;;4967765;28;20030;-79
2022/12/02 04:08:16;;;;;;;61.72;33.03;;;2.80;93.70;;;;;;4963202;28;20195;-78
2022/12/02 04:10:42;;;;;;;57.40;32.25;;;2.80;93.70;;;;;;4964326;28;20085;-76
2022/12/02 04:13:07;;;;;;;56.65;32.47;;;2.80;93.80;;;;;;4958926;28;20388;-79
2022/12/02 04:15:33;;;;;;;57.92;34.25;;;2.80;93.80;;;;;;4965606;28;20386;-77
2022/12/02 04:17:58;;;;;;;61.90;32.45;;;2.80;93.70;;;;;;4969156;28;20106;-75
2022/12/02 04:20:24;;;;;;;59.17;33.47;;;2.80;93.70;;;;;;4964839;28;20043;-77
2022/12/02 04:22:50;;;;;;;56.10;31.40;;;2.80;93.70;;;;;;4964445;28;20291;-74
2022/12/02 04:25:15;;;;;;;56.00;31.88;;;2.80;93.80;;;;;;4978601;28;20096;-75
2022/12/02 04:27:41;;;;;;;57.03;32.72;;;2.80;93.80;;;;;;4966112;28;20594;-76
2022/12/02 04:30:07;;;;;;;57.13;34.13;;;2.90;93.80;;;;;;4963407;28;20542;-77
2022/12/02 04:32:33;;;;;;;57.22;31.38;;;2.90;93.80;;;;;;4962364;28;20055;-75
2022/12/02 04:34:59;;;;;;;56.72;30.25;;;2.90;93.80;;;;;;4973637;28;20101;-78
2022/12/02 04:37:24;;;;;;;59.20;32.08;;;2.90;93.80;;;;;;4965274;28;20390;-79
2022/12/02 04:39:50;;;;;;;56.40;31.38;;;2.90;93.80;;;;;;4968130;28;20030;-77
2022/12/02 04:42:16;;;;;;;58.97;32.67;;;2.90;93.80;;;;;;4967007;28;20148;-79
2022/12/02 04:44:41;;;;;;;61.35;34.10;;;2.90;93.80;;;;;;4968633;28;20026;-76
2022/12/02 04:47:07;;;;;;;65.65;34.67;;;3.00;93.90;;;;;;4966238;28;20037;-74
2022/12/02 04:49:32;;;;;;;65.95;35.13;;;3.00;93.80;;;;;;4965132;28;20468;-79
2022/12/02 04:51:58;;;;;;;68.22;37.17;;;3.00;93.80;;;;;;4958573;28;20126;-75
2022/12/02 04:54:24;;;;;;;71.35;37.10;;;3.00;93.80;;;;;;4965772;28;20105;-73
2022/12/02 04:56:49;;;;;;;70.32;38.90;;;3.10;93.80;;;;;;4967125;28;20386;-77
2022/12/02 04:59:15;;;;;;;64.43;36.22;;;3.10;93.80;;;;;;4968077;28;20181;-79
2022/12/02 05:01:40;;;;;;;75.93;40.38;;;3.10;93.80;;;;;;4970179;28;20049;-80
2022/12/02 05:04:06;;;;;;;77.97;39.20;;;3.10;93.80;;;;;;4963543;28;20086;-78
2022/12/02 05:06:32;;;;;;;77.35;41.08;;;3.10;93.90;;;;;;4967217;28;20045;-77
2022/12/02 05:08:57;;;;;;;75.65;39.25;;;3.10;93.90;;;;;;4957723;28;20039;-79
2022/12/02 05:11:23;;;;;;;80.15;40.63;;;3.10;94.00;;;;;;4969681;28;20026;-78
2022/12/02 05:13:48;;;;;;;72.82;40.90;;;3.20;94.00;;;;;;4964416;28;20035;-77
2022/12/02 05:16:14;;;;;;;84.35;41.22;;;3.20;94.00;;;;;;4955770;28;20049;-79
2022/12/02 05:18:40;;;;;;;89.90;42.40;;;3.20;94.10;;;;;;4963855;28;20034;-75
2022/12/02 05:21:05;;;;;;;81.68;41.65;;;3.30;94.20;;;;;;4957543;28;20047;-84
2022/12/02 05:23:31;;;;;;;83.40;38.67;;;3.30;94.30;;;;;;4963278;28;20193;-78
2022/12/02 05:25:57;;;;;;;85.85;42.47;;;3.40;94.30;;;;;;4958113;28;20703;-83
2022/12/02 05:28:22;;;;;;;82.18;42.28;;;3.40;94.40;;;;;;4956405;28;20053;-78
2022/12/02 05:30:48;;;;;;;87.00;40.30;;;3.40;94.40;;;;;;4965004;28;20027;-75
2022/12/02 05:33:14;;;;;;;87.57;41.00;;;3.50;94.40;;;;;;4960069;28;20039;-83
2022/12/02 05:35:39;;;;;;;90.43;42.65;;;3.50;94.50;;;;;;4952513;28;20040;-77
2022/12/02 05:38:05;;;;;;;84.88;41.17;;;3.50;94.40;;;;;;4959660;28;20034;-76
2022/12/02 05:40:31;;;;;;;85.85;43.97;;;3.50;94.40;;;;;;4962594;28;20479;-76
2022/12/02 05:42:59;;;;;;;81.65;42.28;;;3.50;94.40;;;;;;4977315;28;20341;-76
2022/12/02 05:45:25;;;;;;;80.72;42.55;;;3.60;94.40;;;;;;4963750;28;20117;-78
2022/12/02 05:47:54;;;;;;;90.13;47.60;;;3.60;94.40;;;;;;4964503;28;20526;-78
2022/12/02 05:50:21;;;;;;;85.25;42.83;;;3.60;94.40;;;;;;4967098;28;20038;-78
2022/12/02 05:52:50;;;;;;;90.18;45.53;;;3.60;94.40;;;;;;4971479;28;20110;-80
2022/12/02 05:55:20;;;;;;;85.22;41.80;;;3.60;94.40;;;;;;4966680;28;20034;-77
2022/12/02 05:57:47;;;;;;;97.20;44.25;;;3.60;94.50;;;;;;4969050;28;20096;-79
2022/12/02 06:00:21;;;;;;;91.25;46.20;;;3.60;94.50;;;;;;4966106;28;20098;-76
2022/12/02 06:02:51;;;;;;;84.82;42.70;;;3.60;94.60;;;;;;4969338;28;20038;-82
2022/12/02 06:05:24;;;;;;;86.32;41.90;;;3.60;94.60;;;;;;4981028;28;20097;-75
2022/12/02 06:07:57;;;;;;;87.60;44.20;;;3.60;94.60;;;;;;4967973;28;20479;-75
2022/12/02 06:10:29;;;;;;;88.18;42.92;;;3.60;94.70;;;;;;4966771;28;20503;-75
2022/12/02 06:13:03;;;;;;;88.18;41.78;;;3.60;94.70;;;;;;4964710;28;20046;-81
2022/12/02 06:15:35;;;;;;;87.88;43.58;;;3.60;94.70;;;;;;4964314;28;20026;-77
2022/12/02 06:18:01;;;;;;;82.45;41.58;;;3.60;94.70;;;;;;4965767;28;20030;-81
2022/12/02 06:20:31;;;;;;;91.93;42.92;;;3.60;94.70;;;;;;4965172;28;20634;-75
2022/12/02 06:23:00;;;;;;;94.85;45.35;;;3.60;94.70;;;;;;4965005;28;20525;-80
2022/12/02 06:25:28;;;;;;;92.18;42.72;;;3.60;94.80;;;;;;4971218;28;21176;-80
2022/12/02 06:28:25;;;;;;;84.68;41.42;;;3.60;94.70;;;;;;4970838;28;20022;-76
2022/12/02 06:30:55;;;;;;;97.88;45.97;;;3.60;94.90;;;;;;4967493;28;20511;-78
2022/12/02 06:33:35;;;;;;;88.82;43.25;;;3.60;94.80;;;;;;4964420;28;20089;-81
2022/12/02 06:36:10;;;;;;;95.28;44.63;;;3.60;94.90;;;;;;4978144;28;20039;-79
2022/12/02 06:39:12;;;;;;;94.28;43.88;;;3.60;94.90;;;;;;4956487;28;20314;-77
2022/12/02 06:41:38;;;;;;;98.22;47.50;;;3.60;94.90;;;;;;4967753;28;20042;-78
2022/12/02 06:47:41;;;;;;;105.95;48.58;;;3.70;95.00;;;;;;4967562;28;20435;-76
2022/12/02 06:50:06;;;;;;;109.70;45.92;;;3.80;95.00;;;;;;4950555;28;20044;-79
2022/12/02 06:52:43;;;;;;;111.90;47.95;;;3.80;95.00;;;;;;4965790;28;20057;-75
2022/12/02 06:55:24;;;;;;;120.68;51.03;;;3.80;95.10;;;;;;4965659;28;20038;-76
2022/12/02 06:57:50;;;;;;;113.32;50.63;;;3.90;95.10;;;;;;4959328;28;20326;-75
2022/12/02 07:00:16;;;;;;;108.78;48.47;;;3.90;95.20;;;;;;4960218;28;20387;-76
2022/12/02 07:02:42;;;;;;;113.35;48.30;;;4.00;95.20;;;;;;4962883;28;20034;-77
2022/12/02 07:05:09;;;;;;;107.20;49.42;;;4.00;95.20;;;;;;4964639;28;20034;-74
2022/12/02 07:07:35;;;;;;;103.93;48.22;;;4.00;95.20;;;;;;4968936;28;20496;-79
2022/12/02 07:10:18;;;;;;;121.15;52.80;;;4.00;95.10;;;;;;4969557;28;20467;-77
2022/12/02 07:12:45;;;;;;;117.90;49.85;;;4.00;95.20;;;;;;4965481;28;20627;-77
2022/12/02 07:15:31;;;;;;;118.97;50.50;;;4.00;95.20;;;;;;4961914;28;20054;-81
2022/12/02 07:18:00;;;;;;;125.65;53.50;;;4.00;95.20;;;;;;4960950;28;20027;-76
2022/12/02 07:20:37;;;;;;;131.95;54.80;;;4.10;95.30;;;;;;4963446;28;20049;-77
2022/12/02 07:23:39;;;;;;;128.50;54.05;;;4.10;95.20;;;;;;4957269;28;20039;-79
2022/12/02 07:26:07;;;;;;;137.00;57.83;;;4.20;95.30;;;;;;4968018;28;20046;-76
2022/12/02 07:28:41;;;;;;;134.98;57.13;;;4.20;95.30;;;;;;4962194;28;20039;-76
2022/12/02 07:31:26;;;;;;;131.90;56.42;;;4.20;95.20;;;;;;4969820;28;20030;-76
2022/12/02 07:33:52;;;;;;;129.37;56.03;;;4.20;95.10;;;;;;4968873;28;20419;-77
2022/12/02 07:36:18;;;;;;;136.90;58.70;;;4.20;95.10;;;;;;4973371;28;20597;-76
2022/12/02 07:38:44;;;;;;;135.20;58.15;;;4.20;95.10;;;;;;4966777;28;20096;-75
2022/12/02 07:41:09;;;;;;;136.73;57.13;;;4.20;95.00;;;;;;4964212;28;20387;-75
2022/12/02 07:43:35;;;;;;;134.75;58.05;;;4.20;95.00;;;;;;4965392;28;20452;-76
2022/12/02 07:46:01;;;;;;;137.50;59.20;;;4.30;95.00;;;;;;4964453;28;20773;-76
2022/12/02 07:48:27;;;;;;;141.40;59.97;;;4.30;94.90;;;;;;4963496;28;20063;-75
2022/12/02 07:50:52;;;;;;;137.45;58.70;;;4.20;94.70;;;;;;4963261;28;20022;-77
2022/12/02 07:53:18;;;;;;;138.35;61.15;;;4.30;94.70;;;;;;4965455;28;20057;-74
2022/12/02 07:55:43;;;;;;;133.02;61.42;;;4.30;94.60;;;;;;4948093;28;20399;-75
2022/12/02 07:58:09;;;;;;;138.88;62.33;;;4.30;94.40;;;;;;4968230;28;20094;-77
2022/12/02 08:00:35;;;;;;;135.57;60.58;;;4.40;94.30;;;;;;4962406;28;20684;-74
2022/12/02 08:03:01;;;;;;;130.18;57.08;;;4.40;94.30;;;;;;4956856;28;20027;-74
2022/12/02 08:05:27;;;;;;;129.95;58.65;;;4.40;94.10;;;;;;4961660;28;20117;-76
2022/12/02 08:07:53;;;;;;;126.45;58.92;;;4.40;94.00;;;;;;4956556;28;20327;-76
2022/12/02 08:10:19;;;;;;;125.38;57.88;;;4.40;93.80;;;;;;4957789;28;21660;-77
2022/12/02 08:12:45;;;;;;;121.85;56.92;;;4.40;93.70;;;;;;4960953;28;20463;-75
2022/12/02 08:15:11;;;;;;;126.25;59.00;;;4.50;93.70;;;;;;4963568;28;20035;-76
2022/12/02 08:17:37;;;;;;;121.93;58.08;;;4.40;93.50;;;;;;4963001;28;20018;-75
2022/12/02 08:20:06;;;;;;;125.25;58.67;;;4.50;93.50;;;;;;4962283;28;21000;-75
2022/12/02 08:22:32;;;;;;;121.72;55.47;;;4.50;93.30;;;;;;4958457;28;20064;-77
2022/12/02 08:24:57;;;;;;;121.55;58.10;;;4.60;93.20;;;;;;4963993;28;20048;-77
2022/12/02 08:27:23;;;;;;;117.68;53.80;;;4.60;93.10;;;;;;4970958;28;20050;-77
2022/12/02 08:29:49;;;;;;;122.43;56.08;;;4.60;92.90;;;;;;4969107;28;20035;-76
2022/12/02 08:32:16;;;;;;;117.43;53.58;;;4.50;92.80;;;;;;4961621;28;20472;-75
2022/12/02 08:34:42;;;;;;;113.30;54.30;;;4.60;92.90;;;;;;4971083;28;20067;-74
2022/12/02 08:37:07;;;;;;;116.28;53.47;;;4.60;92.80;;;;;;4968462;28;20037;-76
2022/12/02 08:39:33;;;;;;;114.45;55.70;;;4.60;92.50;;;;;;4967866;28;20041;-76
2022/12/02 08:41:58;;;;;;;116.75;52.80;;;4.60;92.40;;;;;;4957447;28;20558;-77
2022/12/02 08:44:24;;;;;;;112.63;52.40;;;4.60;92.30;;;;;;4958607;28;20064;-76
2022/12/02 08:46:50;;;;;;;121.25;54.75;;;4.60;92.30;;;;;;4957036;28;20375;-78
2022/12/02 08:49:15;;;;;;;117.55;54.42;;;4.60;92.40;;;;;;4959145;28;20039;-77
2022/12/02 08:51:41;;;;;;;112.43;54.78;;;4.60;92.40;;;;;;4956748;28;20327;-76
2022/12/02 08:54:07;;;;;;;117.47;55.90;;;4.60;92.30;;;;;;4955247;28;20364;-77
2022/12/02 08:56:32;;;;;;;113.63;57.65;;;4.60;92.20;;;;;;4961851;28;20491;-76
2022/12/02 08:58:58;;;;;;;114.32;56.80;;;4.60;92.10;;;;;;4957109;28;20463;-76
2022/12/02 09:01:24;;;;;;;114.38;55.67;;;4.60;92.10;;;;;;4963705;28;20183;-76
2022/12/02 09:03:49;;;;;;;113.65;55.47;;;4.60;92.10;;;;;;4960146;28;20101;-77
2022/12/02 09:06:15;;;;;;;116.50;54.60;;;4.60;92.20;;;;;;4961885;28;20499;-78
2022/12/02 09:08:41;;;;;;;106.35;52.40;;;4.60;92.20;;;;;;4957651;28;20054;-78
2022/12/02 09:11:07;;;;;;;109.47;49.88;;;4.70;92.20;;;;;;4964235;28;20023;-80
2022/12/02 09:13:32;;;;;;;108.03;51.95;;;4.70;92.10;;;;;;4960938;28;20126;-75
2022/12/02 09:15:58;;;;;;;111.97;54.05;;;4.70;92.00;;;;;;4959497;28;20414;-77
2022/12/02 09:18:24;;;;;;;108.65;50.92;;;4.70;91.90;;;;;;4961567;28;20090;-76
2022/12/02 09:20:50;;;;;;;112.07;52.63;;;4.70;91.90;;;;;;4965917;28;20491;-77
2022/12/02 09:23:15;;;;;;;105.75;49.35;;;4.70;91.90;;;;;;4967279;28;20035;-79
2022/12/02 09:25:41;;;;;;;100.45;50.85;;;4.70;91.90;;;;;;4962096;28;20063;-74
2022/12/02 09:28:07;;;;;;;107.63;48.92;;;4.70;91.80;;;;;;4963064;28;20042;-75
2022/12/02 09:30:32;;;;;;;100.10;49.13;;;4.70;91.60;;;;;;4969395;28;20030;-76
2022/12/02 09:32:58;;;;;;;92.40;45.83;;;4.70;91.60;;;;;;4966935;28;20035;-79
2022/12/02 09:35:24;;;;;;;97.13;44.53;;;4.70;91.40;;;;;;4969948;28;20038;-77
2022/12/02 09:37:50;;;;;;;87.97;42.00;;;4.60;91.20;;;;;;4968187;28;20539;-76
2022/12/02 09:40:16;;;;;;;88.82;44.00;;;4.60;90.80;;;;;;4965690;28;20138;-77
2022/12/02 09:42:43;;;;;;;85.57;42.13;;;4.50;90.80;;;;;;4965756;28;20434;-75
2022/12/02 09:45:10;;;;;;;83.10;40.20;;;4.50;90.60;;;;;;4965601;28;20026;-77
2022/12/02 09:47:36;;;;;;;78.93;38.90;;;4.50;90.60;;;;;;4967559;28;20038;-75
2022/12/02 09:50:02;;;;;;;88.00;42.17;;;4.50;90.30;;;;;;4972422;28;20042;-76
2022/12/02 09:52:29;;;;;;;85.85;41.50;;;4.50;90.20;;;;;;4967761;28;20027;-77
2022/12/02 09:54:58;;;;;;;81.70;39.80;;;4.50;90.30;;;;;;4981672;28;20400;-76
2022/12/02 09:57:30;;;;;;;85.07;40.45;;;4.50;90.10;;;;;;4966325;28;20031;-75
2022/12/02 10:00:04;;;;;;;79.88;39.35;;;4.50;89.90;;;;;;4963841;28;20105;-77
2022/12/02 10:02:32;;;;;;;85.13;38.38;;;4.40;89.70;;;;;;4970742;28;20027;-78
2022/12/02 10:05:34;;;;;;;77.25;35.50;;;4.40;89.30;;;;;;4970894;28;20046;-76
2022/12/02 10:08:00;;;;;;;72.22;36.50;;;4.30;88.80;;;;;;4963660;28;20034;-75
2022/12/02 10:10:38;;;;;;;66.13;34.28;;;4.30;88.80;;;;;;4964643;28;20184;-76
2022/12/02 10:13:04;;;;;;;65.95;33.83;;;4.30;88.10;;;;;;4966973;28;20026;-75
2022/12/02 10:15:31;;;;;;;69.68;35.20;;;4.20;87.60;;;;;;4961967;28;20578;-75
2022/12/02 10:18:01;;;;;;;72.32;37.05;;;4.20;87.50;;;;;;4954009;28;20023;-74
2022/12/02 10:20:27;;;;;;;73.72;37.67;;;4.20;87.60;;;;;;4960262;28;20058;-77
2022/12/02 10:23:19;;;;;;;81.25;36.85;;;4.20;87.40;;;;;;4957700;28;20051;-77
2022/12/02 10:25:46;;;;;;;73.57;35.83;;;4.20;87.70;;;;;;4952354;28;20041;-76
2022/12/02 10:28:27;;;;;;;74.85;39.17;;;4.20;88.40;;;;;;4955227;28;20427;-75
2022/12/02 10:31:23;;;;;;;81.65;39.85;;;4.10;88.80;;;;;;4955830;28;20046;-80
2022/12/02 10:34:01;;;;;;;81.50;40.92;;;4.10;89.40;;;;;;4957789;28;20054;-79
2022/12/02 10:36:35;;;;;;;78.15;37.85;;;4.10;89.50;;;;;;4966660;28;20452;-77
2022/12/02 10:39:29;;;;;;;78.30;38.72;;;4.10;89.40;;;;;;4966893;28;20162;-80
2022/12/02 10:42:04;;;;;;;78.93;37.70;;;4.10;89.50;;;;;;4967580;28;20042;-78
2022/12/02 10:44:43;;;;;;;71.47;36.10;;;4.10;89.20;;;;;;4964732;28;20093;-79
2022/12/02 10:47:15;;;;;;;64.28;32.10;;;4.10;89.30;;;;;;4959747;28;20095;-76
2022/12/02 10:49:58;;;;;;;59.78;29.35;;;4.20;88.30;;;;;;4959200;28;20138;-76
2022/12/02 10:52:46;;;;;;;57.88;28.55;;;4.30;87.60;;;;;;4959857;28;20424;-76
2022/12/02 10:55:12;;;;;;;61.83;29.38;;;4.30;87.20;;;;;;4963356;28;20022;-77
2022/12/02 10:57:38;;;;;;;61.45;28.10;;;4.30;87.00;;;;;;4965870;28;20026;-77
2022/12/02 11:00:15;;;;;;;55.40;26.90;;;4.30;86.60;;;;;;4958921;28;20031;-77
2022/12/02 11:02:51;;;;;;;58.22;29.23;;;4.20;86.20;;;;;;4957172;28;20081;-76
2022/12/02 11:05:25;;;;;;;61.47;31.00;;;4.20;86.50;;;;;;4954890;28;20453;-79
2022/12/02 11:07:54;;;;;;;62.63;30.77;;;4.20;86.80;;;;;;4964172;28;20027;-79
2022/12/02 11:10:22;;;;;;;66.72;31.42;;;4.20;87.00;;;;;;4969913;28;20046;-78
2022/12/02 11:12:48;;;;;;;68.10;30.65;;;4.20;87.20;;;;;;4965615;28;20038;-76
2022/12/02 11:15:36;;;;;;;73.28;34.28;;;4.20;87.30;;;;;;4965760;28;20035;-79
2022/12/02 11:18:04;;;;;;;77.35;35.65;;;4.10;87.60;;;;;;4963687;28;20037;-76
2022/12/02 11:20:31;;;;;;;79.60;35.55;;;4.10;87.70;;;;;;4962284;28;20146;-79
2022/12/02 11:22:59;;;;;;;76.28;34.42;;;4.10;87.70;;;;;;4964710;28;20050;-75
2022/12/02 11:25:47;;;;;;;82.22;35.53;;;4.10;87.90;;;;;;4964284;28;20041;-76
2022/12/02 11:28:40;;;;;;;72.38;35.05;;;4.10;88.00;;;;;;4967554;28;20057;-77
2022/12/02 11:31:17;;;;;;;79.07;34.67;;;4.00;88.30;;;;;;4953858;28;20089;-78
2022/12/02 11:33:43;;;;;;;80.70;36.65;;;4.00;88.40;;;;;;4962391;28;20085;-75
2022/12/02 11:36:09;;;;;;;70.15;32.13;;;4.10;88.30;;;;;;4962282;28;20039;-76
2022/12/02 11:38:49;;;;;;;71.03;33.30;;;4.10;87.90;;;;;;4962613;28;20038;-81
2022/12/02 11:41:39;;;;;;;68.25;31.05;;;4.30;87.90;;;;;;4962186;28;20038;-75
2022/12/02 11:44:20;;;;;;;67.80;31.25;;;4.40;87.40;;;;;;4949896;28;20046;-75
2022/12/02 11:46:53;;;;;;;65.65;30.25;;;4.60;86.90;;;;;;4964598;28;20042;-79
2022/12/02 11:49:20;;;;;;;57.35;28.08;;;4.70;86.40;;;;;;4961750;28;20130;-74
2022/12/02 11:51:46;;;;;;;61.35;29.23;;;4.70;85.40;;;;;;4966450;28;20495;-76
2022/12/02 11:54:15;;;;;;;53.50;27.23;;;4.60;85.50;;;;;;4962391;28;20066;-78
2022/12/02 11:56:43;;;;;;;62.20;29.85;;;4.70;85.70;;;;;;4967206;28;20031;-75
2022/12/02 11:59:25;;;;;;;58.78;28.73;;;4.70;85.60;;;;;;4969732;28;20124;-74
2022/12/02 12:02:07;;;;;;;67.50;33.58;;;4.60;85.00;;;;;;4970350;28;20035;-75
2022/12/02 12:04:32;;;;;;;65.57;33.10;;;4.40;85.20;;;;;;4969819;28;20045;-76
2022/12/02 12:06:59;;;;;;;65.95;33.45;;;4.40;85.60;;;;;;4961280;28;20038;-75
2022/12/02 12:09:29;;;;;;;60.60;31.85;;;4.30;85.80;;;;;;4957967;28;20050;-79
2022/12/02 12:12:11;;;;;;;63.42;32.40;;;4.30;85.80;;;;;;4954305;28;20089;-78
2022/12/02 12:15:02;;;;;;;65.20;32.30;;;4.20;86.00;;;;;;4959044;28;20043;-77
2022/12/02 12:17:42;;;;;;;67.05;34.17;;;4.10;85.60;;;;;;4953684;28;20137;-78
2022/12/02 12:20:13;;;;;;;61.80;33.17;;;4.10;85.50;;;;;;4954905;28;20048;-77
2022/12/02 12:22:40;;;;;;;68.88;36.50;;;4.00;85.40;;;;;;4949967;28;20524;-80
2022/12/02 12:25:43;;;;;;;68.68;35.70;;;4.10;85.80;;;;;;4955675;28;20189;-79
2022/12/02 12:28:35;;;;;;;67.63;34.65;;;4.10;85.80;;;;;;4953078;28;20348;-77
2022/12/02 12:31:02;;;;;;;70.25;35.65;;;4.10;86.00;;;;;;4953731;28;20051;-76
2022/12/02 12:33:29;;;;;;;67.70;35.75;;;4.10;86.30;;;;;;4954845;28;20125;-76
2022/12/02 12:35:55;;;;;;;72.65;35.75;;;4.10;86.50;;;;;;4965173;28;20054;-74
2022/12/02 12:38:24;;;;;;;70.78;34.30;;;4.10;86.60;;;;;;4963460;28;20274;-74
2022/12/02 12:40:50;;;;;;;70.93;36.08;;;4.10;86.80;;;;;;4964107;28;20387;-76
2022/12/02 12:43:16;;;;;;;80.38;39.67;;;4.00;86.60;;;;;;4963681;28;20043;-78
2022/12/02 12:45:42;;;;;;;85.18;42.65;;;4.00;86.50;;;;;;4964467;28;20294;-73
2022/12/02 12:48:08;;;;;;;77.78;40.47;;;3.90;86.80;;;;;;4968404;28;20399;-73
2022/12/02 12:50:34;;;;;;;76.78;40.60;;;3.90;87.00;;;;;;4965091;28;20039;-79